Terminal Aerodrome Forecast
Issued by NWS

Current Version | Previous Version | Text Only | Print | Product List | Glossary On
Versions: 1 2 3 4 5 6 7 8 9 10 11 12 13 14 15 16
000
FTPQ31 PGUM 212038 RRA
TAFGWT
TAF
PGWT 212038Z 2121/2218 VRB05KT P6SM FEW015
     FM212200 11006KT P6SM FEW015 SCT040=

USA.gov is the U.S. government's official web portal to all federal, state and local government web resources and services.